createdAt,value
2022-09-23T00:00:15.098Z,83
2022-09-23T00:05:15.087Z,84
2022-09-23T00:10:15.123Z,84
2022-09-23T00:15:15.108Z,84
2022-09-23T00:20:15.117Z,84
2022-09-23T00:25:15.106Z,84
2022-09-23T00:30:15.099Z,84
2022-09-23T00:35:15.112Z,84
2022-09-23T00:40:15.135Z,84
2022-09-23T00:45:15.103Z,84
2022-09-23T00:50:15.116Z,84
2022-09-23T00:55:15.108Z,84
2022-09-23T01:00:15.112Z,84
2022-09-23T01:05:15.104Z,84
2022-09-23T01:10:15.109Z,84
2022-09-23T01:15:15.109Z,84
2022-09-23T01:20:15.108Z,85
2022-09-23T01:25:15.100Z,85
2022-09-23T01:30:15.113Z,85
2022-09-23T01:35:15.131Z,85
2022-09-23T01:40:15.126Z,85
2022-09-23T01:45:15.104Z,85
2022-09-23T01:50:15.100Z,85
2022-09-23T01:55:15.099Z,85
2022-09-23T02:00:15.112Z,85
2022-09-23T02:05:15.099Z,85
2022-09-23T02:10:15.106Z,85
2022-09-23T02:15:15.102Z,86
2022-09-23T02:20:15.112Z,86
2022-09-23T02:25:15.096Z,86
2022-09-23T02:30:15.108Z,86
2022-09-23T02:35:15.094Z,86
2022-09-23T02:40:15.194Z,86
2022-09-23T02:45:15.093Z,86
2022-09-23T02:50:15.094Z,86
2022-09-23T02:55:15.091Z,85
2022-09-23T03:00:15.100Z,86
2022-09-23T03:05:15.103Z,86
2022-09-23T03:10:15.112Z,86
2022-09-23T03:15:15.107Z,85
2022-09-23T03:20:15.095Z,85
2022-09-23T03:25:15.106Z,85
2022-09-23T03:30:15.090Z,85
2022-09-23T03:35:15.097Z,86
2022-09-23T03:40:15.160Z,86
2022-09-23T03:45:15.093Z,86
2022-09-23T03:50:15.100Z,86
2022-09-23T03:55:15.091Z,86
2022-09-23T04:00:15.103Z,86
2022-09-23T04:05:15.103Z,86
2022-09-23T04:10:15.095Z,86
2022-09-23T04:15:15.102Z,86
2022-09-23T04:20:15.100Z,86
2022-09-23T04:25:15.103Z,86
2022-09-23T04:30:15.096Z,86
2022-09-23T04:35:15.123Z,86
2022-09-23T04:40:15.178Z,86
2022-09-23T04:45:15.106Z,87
2022-09-23T04:50:15.107Z,87
2022-09-23T04:55:15.095Z,87
2022-09-23T05:00:15.104Z,87
2022-09-23T05:05:15.097Z,87
2022-09-23T05:10:15.119Z,87
2022-09-23T05:15:15.109Z,87
2022-09-23T05:20:15.099Z,87
2022-09-23T05:25:15.100Z,87
2022-09-23T05:30:15.102Z,87
2022-09-23T05:35:15.106Z,87
2022-09-23T05:40:15.149Z,87
2022-09-23T05:45:15.105Z,86
2022-09-23T05:50:15.108Z,86
2022-09-23T05:55:15.097Z,85
2022-09-23T06:00:15.100Z,85
2022-09-23T06:05:15.096Z,84
2022-09-23T06:10:15.119Z,83
2022-09-23T06:15:15.096Z,83
2022-09-23T06:20:15.110Z,83
2022-09-23T06:25:15.091Z,82
2022-09-23T06:30:15.110Z,81
2022-09-23T06:35:24.401Z,79
2022-09-23T06:40:15.157Z,78
2022-09-23T06:45:15.103Z,78
2022-09-23T06:50:15.099Z,77
2022-09-23T06:55:15.115Z,76
2022-09-23T07:00:15.107Z,75
2022-09-23T07:05:15.108Z,76
2022-09-23T07:10:15.109Z,75
2022-09-23T07:15:15.099Z,76
2022-09-23T07:20:15.114Z,76
2022-09-23T07:25:15.113Z,76
2022-09-23T07:30:23.125Z,77
2022-09-23T07:35:15.099Z,77
2022-09-23T07:40:15.166Z,76
2022-09-23T07:45:15.098Z,76
2022-09-23T07:50:15.119Z,76
2022-09-23T07:55:18.850Z,76
2022-09-23T08:00:15.102Z,75
2022-09-23T08:05:15.097Z,74
2022-09-23T08:10:15.104Z,74
2022-09-23T08:15:15.358Z,73
2022-09-23T08:20:15.113Z,73
2022-09-23T08:25:15.091Z,72
2022-09-23T08:30:15.094Z,72
2022-09-23T08:35:15.099Z,72
2022-09-23T08:40:15.154Z,71
2022-09-23T08:45:15.085Z,70
2022-09-23T08:50:15.096Z,71
2022-09-23T08:55:15.102Z,71
2022-09-23T09:00:15.103Z,71
2022-09-23T09:05:15.098Z,71
2022-09-23T09:10:15.111Z,69
2022-09-23T09:15:15.101Z,69
2022-09-23T09:20:15.097Z,69
2022-09-23T09:25:15.096Z,69
2022-09-23T09:30:15.105Z,69
2022-09-23T09:35:15.099Z,68
2022-09-23T09:40:15.196Z,67
2022-09-23T09:45:15.112Z,66
2022-09-23T09:50:15.117Z,64
2022-09-23T09:55:15.048Z,64
2022-09-23T10:00:15.047Z,63
2022-09-23T10:05:15.043Z,61
2022-09-23T10:10:22.391Z,61
2022-09-23T10:15:15.047Z,61
2022-09-23T10:20:15.049Z,62
2022-09-23T10:25:15.034Z,61
2022-09-23T10:30:15.054Z,61
2022-09-23T10:35:15.045Z,60
2022-09-23T10:40:15.127Z,59
2022-09-23T10:45:15.034Z,59
2022-09-23T10:50:15.133Z,58
2022-09-23T10:55:15.049Z,58
2022-09-23T11:00:15.089Z,57
2022-09-23T11:05:15.062Z,57
2022-09-23T11:10:23.546Z,56
2022-09-23T11:15:15.050Z,56
2022-09-23T11:20:15.054Z,55
2022-09-23T11:25:15.315Z,55
2022-09-23T11:30:15.065Z,55
2022-09-23T11:35:15.070Z,54
2022-09-23T11:40:15.180Z,54
2022-09-23T11:45:15.067Z,54
2022-09-23T11:50:15.072Z,51
2022-09-23T11:55:20.670Z,51
2022-09-23T12:00:15.084Z,50
2022-09-23T12:05:15.196Z,51
2022-09-23T12:10:15.089Z,50
2022-09-23T12:15:15.065Z,51
2022-09-23T12:20:15.074Z,52
2022-09-23T12:25:15.070Z,49
2022-09-23T12:30:15.081Z,48
2022-09-23T12:35:15.075Z,49
2022-09-23T12:40:15.132Z,49
2022-09-23T12:45:15.074Z,49
2022-09-23T12:50:17.732Z,49
2022-09-23T12:55:15.082Z,49
2022-09-23T13:00:15.082Z,49
2022-09-23T13:05:15.076Z,48
2022-09-23T13:10:15.088Z,47
2022-09-23T13:15:15.078Z,47
2022-09-23T13:20:15.088Z,51
2022-09-23T13:25:15.088Z,50
2022-09-23T13:30:15.084Z,50
2022-09-23T13:35:15.072Z,49
2022-09-23T13:40:15.113Z,49
2022-09-23T13:45:15.075Z,49
2022-09-23T13:50:15.082Z,50
2022-09-23T13:55:15.082Z,48
2022-09-23T14:00:15.079Z,49
2022-09-23T14:05:15.088Z,49
2022-09-23T14:10:15.094Z,47
2022-09-23T14:15:15.084Z,47
2022-09-23T14:20:15.085Z,48
2022-09-23T14:25:15.095Z,48
2022-09-23T14:30:15.082Z,48
2022-09-23T14:35:15.086Z,48
2022-09-23T14:40:15.151Z,48
2022-09-23T14:45:15.093Z,48
2022-09-23T14:50:15.090Z,48
2022-09-23T14:55:15.090Z,49
2022-09-23T15:00:15.102Z,49
2022-09-23T15:05:15.092Z,50
2022-09-23T15:10:15.093Z,50
2022-09-23T15:15:15.089Z,50
2022-09-23T15:20:15.102Z,50
2022-09-23T15:25:15.092Z,51
2022-09-23T15:30:15.390Z,50
2022-09-23T15:35:15.090Z,50
2022-09-23T15:40:15.125Z,50
2022-09-23T15:45:15.096Z,50
2022-09-23T15:50:15.103Z,51
2022-09-23T15:55:15.097Z,51
2022-09-23T16:00:15.096Z,51
2022-09-23T16:05:15.106Z,52
2022-09-23T16:10:15.108Z,54
2022-09-23T16:15:15.111Z,55
2022-09-23T16:20:15.093Z,55
2022-09-23T16:25:15.105Z,63
2022-09-23T16:30:15.096Z,64
2022-09-23T16:35:15.097Z,66
2022-09-23T16:40:15.142Z,67
2022-09-23T16:45:15.094Z,68
2022-09-23T16:50:15.092Z,69
2022-09-23T16:55:15.088Z,70
2022-09-23T17:00:15.105Z,70
2022-09-23T17:05:15.100Z,72
2022-09-23T17:10:15.091Z,73
2022-09-23T17:15:15.100Z,74
2022-09-23T17:20:15.114Z,74
2022-09-23T17:25:15.113Z,75
2022-09-23T17:30:15.116Z,75
2022-09-23T17:35:15.104Z,75
2022-09-23T17:40:15.177Z,75
2022-09-23T17:45:15.096Z,75
2022-09-23T17:50:15.119Z,75
2022-09-23T17:55:15.103Z,75
2022-09-23T18:00:15.115Z,76
2022-09-23T18:05:15.095Z,76
2022-09-23T18:10:15.117Z,76
2022-09-23T18:15:19.419Z,76
2022-09-23T18:20:15.105Z,76
2022-09-23T18:25:35.377Z,77
2022-09-23T18:30:15.126Z,77
2022-09-23T18:35:15.102Z,76
2022-09-23T18:40:15.163Z,76
2022-09-23T18:45:15.099Z,76
2022-09-23T18:50:15.112Z,76
2022-09-23T18:55:15.107Z,76
2022-09-23T19:00:15.098Z,75
2022-09-23T19:05:15.106Z,76
2022-09-23T19:10:15.109Z,75
2022-09-23T19:15:15.095Z,76
2022-09-23T19:20:15.104Z,76
2022-09-23T19:25:15.103Z,75
2022-09-23T19:30:15.109Z,76
2022-09-23T19:35:15.101Z,76
2022-09-23T19:40:15.154Z,75
2022-09-23T19:45:15.115Z,75
2022-09-23T19:50:15.113Z,75
2022-09-23T20:00:15.090Z,75
2022-09-23T20:05:18.467Z,74
2022-09-23T20:10:15.095Z,75
2022-09-23T20:15:15.084Z,76
2022-09-23T20:20:15.094Z,76
2022-09-23T20:25:15.099Z,76
2022-09-23T20:30:15.099Z,77
2022-09-23T20:35:15.095Z,77
2022-09-23T20:40:15.132Z,76
2022-09-23T20:45:15.089Z,77
2022-09-23T20:50:15.091Z,78
2022-09-23T20:55:15.099Z,78
2022-09-23T21:00:15.093Z,78
2022-09-23T21:05:15.087Z,77
2022-09-23T21:10:15.097Z,77
2022-09-23T21:15:15.088Z,77
2022-09-23T21:20:15.096Z,77
2022-09-23T21:25:27.203Z,77
2022-09-23T21:30:15.092Z,78
2022-09-23T21:35:15.099Z,78
2022-09-23T21:40:15.185Z,79
2022-09-23T21:45:15.091Z,79
2022-09-23T21:50:15.096Z,79
2022-09-23T21:55:15.091Z,79
2022-09-23T22:00:15.096Z,79
2022-09-23T22:05:15.092Z,78
2022-09-23T22:10:15.094Z,78
2022-09-23T22:15:15.092Z,78
2022-09-23T22:20:15.093Z,78
2022-09-23T22:25:15.090Z,78
2022-09-23T22:30:15.093Z,79
2022-09-23T22:35:15.087Z,79
2022-09-23T22:40:15.200Z,79
2022-09-23T22:45:15.097Z,79
2022-09-23T22:50:15.338Z,80
2022-09-23T22:55:15.082Z,80
2022-09-23T23:00:15.100Z,80
2022-09-23T23:05:15.086Z,80
2022-09-23T23:10:15.092Z,80
2022-09-23T23:15:15.085Z,81
2022-09-23T23:20:15.094Z,80
2022-09-23T23:25:15.094Z,80
2022-09-23T23:30:15.091Z,79
2022-09-23T23:35:15.093Z,80
2022-09-23T23:40:15.140Z,80
2022-09-23T23:45:15.096Z,80
2022-09-23T23:50:15.097Z,81
2022-09-23T23:55:15.091Z,81
